createdAt,value
2018-02-09T00:01:10.695Z,89.07
2018-02-09T00:03:38.231Z,89.14
2018-02-09T00:06:05.844Z,88.47
2018-02-09T00:08:33.396Z,88.56
2018-02-09T00:11:00.939Z,87.85
2018-02-09T00:13:28.587Z,88.03
2018-02-09T00:15:56.115Z,88.61
2018-02-09T00:18:23.674Z,88.96
2018-02-09T00:20:51.225Z,89.00
2018-02-09T00:23:18.758Z,89.25
2018-02-09T00:25:46.301Z,89.28
2018-02-09T00:28:13.824Z,89.60
2018-02-09T00:30:41.434Z,90.01
2018-02-09T00:33:08.996Z,89.56
2018-02-09T00:35:36.539Z,89.70
2018-02-09T00:38:04.133Z,88.63
2018-02-09T00:40:31.740Z,88.68
2018-02-09T00:42:59.306Z,89.24
2018-02-09T00:45:26.892Z,89.68
2018-02-09T00:47:54.453Z,89.57
2018-02-09T00:50:22.027Z,88.90
2018-02-09T00:52:49.672Z,89.16
2018-02-09T00:55:17.255Z,88.84
2018-02-09T00:57:44.815Z,89.21
2018-02-09T01:00:12.372Z,88.86
2018-02-09T01:02:39.916Z,88.02
2018-02-09T01:05:07.473Z,87.82
2018-02-09T01:07:34.992Z,87.53
2018-02-09T01:10:02.580Z,87.66
2018-02-09T01:12:30.184Z,88.11
2018-02-09T01:14:57.713Z,87.83
2018-02-09T01:17:25.333Z,87.13
2018-02-09T01:19:52.898Z,87.22
2018-02-09T01:22:20.445Z,87.24
2018-02-09T01:24:48.018Z,87.34
2018-02-09T01:27:15.590Z,87.42
2018-02-09T01:29:43.144Z,87.35
2018-02-09T01:32:10.663Z,87.47
2018-02-09T01:34:38.255Z,87.64
2018-02-09T01:37:05.804Z,87.53
2018-02-09T01:39:34.121Z,87.76
2018-02-09T01:42:01.880Z,87.73
2018-02-09T01:44:29.449Z,87.26
2018-02-09T01:46:57.000Z,87.50
2018-02-09T01:49:24.518Z,87.21
2018-02-09T01:51:52.088Z,87.66
2018-02-09T01:54:19.611Z,87.55
2018-02-09T01:56:47.227Z,87.66
2018-02-09T01:59:14.796Z,88.39
2018-02-09T02:01:42.354Z,88.73
2018-02-09T02:04:09.938Z,88.37
2018-02-09T02:06:37.485Z,88.65
2018-02-09T02:09:05.116Z,89.04
2018-02-09T02:11:33.518Z,88.82
2018-02-09T02:14:01.073Z,89.20
2018-02-09T02:16:28.803Z,88.98
2018-02-09T02:18:56.361Z,89.40
2018-02-09T02:21:23.913Z,89.40
2018-02-09T02:23:51.483Z,89.22
2018-02-09T02:26:19.059Z,89.33
2018-02-09T02:28:46.652Z,89.85
2018-02-09T02:31:14.189Z,89.71
2018-02-09T02:33:41.828Z,89.79
2018-02-09T02:36:09.398Z,89.56
2018-02-09T02:38:36.961Z,88.96
2018-02-09T02:41:04.519Z,89.11
2018-02-09T02:43:32.150Z,89.08
2018-02-09T02:45:59.709Z,88.48
2018-02-09T02:48:27.275Z,88.77
2018-02-09T02:50:54.860Z,88.39
2018-02-09T02:53:22.420Z,88.56
2018-02-09T02:55:50.008Z,88.50
2018-02-09T02:58:17.575Z,88.23
2018-02-09T03:00:45.230Z,88.17
2018-02-09T03:03:12.785Z,88.81
2018-02-09T03:05:40.368Z,88.84
2018-02-09T03:08:07.926Z,88.17
2018-02-09T03:10:35.499Z,88.30
2018-02-09T03:13:03.379Z,88.64
2018-02-09T03:15:30.909Z,88.58
2018-02-09T03:17:58.446Z,88.83
2018-02-09T03:20:26.057Z,88.92
2018-02-09T03:22:53.689Z,88.95
2018-02-09T03:25:21.240Z,88.96
2018-02-09T03:27:49.164Z,89.47
2018-02-09T03:30:16.714Z,89.12
2018-02-09T03:32:44.633Z,89.51
2018-02-09T03:35:12.216Z,89.65
2018-02-09T03:37:39.773Z,89.94
2018-02-09T03:40:07.291Z,89.84
2018-02-09T03:42:34.849Z,89.80
2018-02-09T03:45:02.469Z,89.85
2018-02-09T03:47:30.026Z,89.91
2018-02-09T03:49:57.625Z,89.70
2018-02-09T03:52:25.156Z,90.15
2018-02-09T03:54:52.694Z,90.31
2018-02-09T03:57:20.437Z,90.66
2018-02-09T03:59:48.112Z,90.59
2018-02-09T04:02:15.640Z,90.47
2018-02-09T04:04:43.210Z,90.48
2018-02-09T04:07:10.796Z,90.72
2018-02-09T04:09:38.327Z,90.62
2018-02-09T04:12:05.876Z,89.97
2018-02-09T04:14:33.456Z,90.06
2018-02-09T04:17:01.017Z,90.34
2018-02-09T04:19:28.605Z,90.74
2018-02-09T04:21:56.128Z,91.02
2018-02-09T04:24:23.683Z,90.84
2018-02-09T04:26:51.627Z,90.69
2018-02-09T04:29:19.184Z,90.82
2018-02-09T04:31:46.749Z,91.24
2018-02-09T04:34:14.315Z,91.28
2018-02-09T04:36:41.834Z,91.21
2018-02-09T04:39:09.436Z,91.44
2018-02-09T04:41:36.967Z,91.50
2018-02-09T04:44:04.777Z,91.60
2018-02-09T04:46:32.359Z,91.93
2018-02-09T04:48:59.912Z,92.14
2018-02-09T04:51:27.516Z,92.29
2018-02-09T04:53:55.082Z,91.96
2018-02-09T04:56:22.658Z,92.26
2018-02-09T04:58:50.235Z,92.15
2018-02-09T05:01:17.820Z,91.96
2018-02-09T05:03:45.366Z,92.06
2018-02-09T05:06:13.350Z,92.78
2018-02-09T05:08:40.871Z,91.92
2018-02-09T05:11:08.401Z,92.50
2018-02-09T05:13:36.221Z,92.16
2018-02-09T05:16:03.751Z,92.16
2018-02-09T05:18:31.349Z,92.19
2018-02-09T05:20:58.899Z,92.26
2018-02-09T05:23:26.468Z,92.23
2018-02-09T05:25:54.094Z,92.45
2018-02-09T05:28:21.660Z,92.34
2018-02-09T05:30:49.226Z,92.32
2018-02-09T05:33:16.820Z,92.17
2018-02-09T05:35:44.342Z,92.39
2018-02-09T05:38:11.887Z,92.16
2018-02-09T05:40:39.501Z,91.48
2018-02-09T05:43:07.052Z,91.15
2018-02-09T05:45:34.637Z,90.95
2018-02-09T05:48:02.218Z,91.15
2018-02-09T05:50:29.791Z,91.39
2018-02-09T05:52:57.402Z,91.61
2018-02-09T05:55:25.053Z,91.39
2018-02-09T05:57:52.589Z,91.18
2018-02-09T06:00:20.157Z,91.55
2018-02-09T06:02:47.724Z,91.78
2018-02-09T06:05:15.684Z,91.81
2018-02-09T06:07:43.222Z,91.13
2018-02-09T06:10:10.821Z,91.24
2018-02-09T06:12:38.402Z,91.24
2018-02-09T06:15:05.979Z,91.28
2018-02-09T06:17:33.556Z,91.51
2018-02-09T06:20:01.103Z,91.62
2018-02-09T06:22:28.684Z,91.68
2018-02-09T06:24:56.455Z,91.27
2018-02-09T06:27:24.341Z,91.17
2018-02-09T06:29:51.877Z,91.41
2018-02-09T06:32:19.396Z,91.01
2018-02-09T06:34:46.945Z,90.95
2018-02-09T06:37:14.503Z,90.93
2018-02-09T06:39:42.083Z,91.35
2018-02-09T06:42:09.631Z,91.51
2018-02-09T06:44:37.155Z,91.31
2018-02-09T06:47:04.728Z,90.73
2018-02-09T06:49:32.271Z,90.98
2018-02-09T06:51:59.800Z,90.60
2018-02-09T06:54:27.381Z,90.64
2018-02-09T06:56:54.943Z,90.49
2018-02-09T06:59:22.529Z,90.56
2018-02-09T07:01:50.146Z,90.25
2018-02-09T07:04:17.690Z,89.92
2018-02-09T07:06:45.282Z,89.64
2018-02-09T07:09:12.808Z,89.62
2018-02-09T07:11:40.841Z,89.70
2018-02-09T07:14:08.527Z,89.76
2018-02-09T07:16:36.072Z,89.67
2018-02-09T07:19:04.007Z,89.47
2018-02-09T07:21:31.527Z,89.20
2018-02-09T07:23:59.067Z,89.17
2018-02-09T07:26:26.648Z,89.20
2018-02-09T07:28:54.246Z,88.84
2018-02-09T07:31:21.790Z,88.87
2018-02-09T07:33:49.421Z,88.72
2018-02-09T07:36:16.954Z,88.40
2018-02-09T07:38:44.514Z,88.13
2018-02-09T07:41:12.142Z,87.82
2018-02-09T07:43:39.698Z,87.96
2018-02-09T07:46:07.228Z,87.83
2018-02-09T07:48:34.779Z,87.10
2018-02-09T07:51:02.329Z,87.15
2018-02-09T07:53:29.885Z,87.30
2018-02-09T07:55:57.576Z,87.09
2018-02-09T07:58:25.146Z,86.86
2018-02-09T08:00:52.743Z,86.74
2018-02-09T08:03:20.266Z,86.45
2018-02-09T08:05:47.816Z,86.43
2018-02-09T08:08:15.446Z,86.31
2018-02-09T08:10:42.989Z,86.08
2018-02-09T08:13:10.791Z,86.02
2018-02-09T08:15:38.335Z,85.87
2018-02-09T08:18:06.281Z,85.59
2018-02-09T08:20:33.808Z,84.96
2018-02-09T08:23:01.429Z,84.93
2018-02-09T08:25:28.991Z,84.60
2018-02-09T08:27:56.634Z,84.94
2018-02-09T08:30:24.205Z,84.63
2018-02-09T08:32:51.773Z,84.92
2018-02-09T08:35:19.356Z,84.26
2018-02-09T08:37:46.880Z,84.47
2018-02-09T08:40:14.597Z,84.22
2018-02-09T08:42:42.156Z,84.27
2018-02-09T08:45:09.739Z,83.90
2018-02-09T08:47:37.271Z,84.08
2018-02-09T08:50:04.870Z,83.99
2018-02-09T08:52:32.458Z,83.33
2018-02-09T08:55:00.140Z,82.58
2018-02-09T08:57:27.927Z,82.83
2018-02-09T08:59:55.494Z,82.23
2018-02-09T09:02:23.087Z,81.90
2018-02-09T09:04:50.658Z,82.22
2018-02-09T09:07:18.247Z,81.72
2018-02-09T09:09:45.820Z,81.01
2018-02-09T09:12:13.354Z,81.11
2018-02-09T09:14:41.042Z,81.51
2018-02-09T09:17:08.572Z,81.11
2018-02-09T09:19:36.147Z,80.68
2018-02-09T09:22:03.703Z,80.38
2018-02-09T09:24:31.228Z,79.94
2018-02-09T09:26:58.984Z,79.80
2018-02-09T09:29:26.532Z,79.32
2018-02-09T09:31:54.505Z,79.51
2018-02-09T09:34:22.020Z,77.82
2018-02-09T09:36:49.535Z,78.39
2018-02-09T09:39:17.104Z,78.44
2018-02-09T09:41:46.692Z,78.29
2018-02-09T09:44:14.602Z,78.36
2018-02-09T09:46:42.161Z,77.36
2018-02-09T09:49:09.719Z,77.73
2018-02-09T09:51:37.274Z,77.79
2018-02-09T09:54:04.933Z,77.38
2018-02-09T09:56:32.540Z,77.37
2018-02-09T09:59:00.098Z,77.37
2018-02-09T10:01:31.635Z,76.44
2018-02-09T10:03:59.154Z,76.93
2018-02-09T10:06:26.700Z,77.48
2018-02-09T10:08:54.304Z,75.92
2018-02-09T10:11:21.849Z,76.05
2018-02-09T10:13:49.380Z,75.98
2018-02-09T10:16:17.353Z,75.30
2018-02-09T10:18:44.895Z,76.37
2018-02-09T10:21:12.444Z,76.23
2018-02-09T10:23:40.000Z,76.08
2018-02-09T10:26:08.973Z,76.46
2018-02-09T10:28:36.551Z,77.08
2018-02-09T10:31:04.108Z,76.25
2018-02-09T10:33:32.019Z,76.78
2018-02-09T10:35:59.543Z,76.29
2018-02-09T10:38:27.070Z,75.10
2018-02-09T10:40:54.644Z,75.23
2018-02-09T10:43:22.187Z,75.74
2018-02-09T10:45:49.737Z,75.05
2018-02-09T10:48:17.289Z,75.44
2018-02-09T10:50:44.915Z,74.38
2018-02-09T10:53:12.470Z,74.47
2018-02-09T10:55:40.020Z,74.06
2018-02-09T10:58:07.585Z,74.06
2018-02-09T11:00:40.832Z,73.05
2018-02-09T11:03:08.416Z,72.87
2018-02-09T11:05:35.974Z,72.49
2018-02-09T11:08:03.520Z,73.29
2018-02-09T11:10:33.858Z,73.16
2018-02-09T11:13:07.128Z,71.63
2018-02-09T11:15:34.673Z,73.15
2018-02-09T11:18:02.246Z,72.65
2018-02-09T11:20:29.772Z,71.95
2018-02-09T11:22:57.463Z,70.18
2018-02-09T11:25:25.127Z,70.80
2018-02-09T11:27:52.763Z,71.21
2018-02-09T11:30:20.284Z,71.57
2018-02-09T11:32:47.809Z,70.59
2018-02-09T11:35:15.850Z,70.58
2018-02-09T11:37:46.178Z,69.97
2018-02-09T11:40:13.744Z,69.75
2018-02-09T11:42:41.749Z,69.87
2018-02-09T11:45:09.279Z,68.90
2018-02-09T11:47:36.885Z,68.94
2018-02-09T11:50:04.427Z,69.01
2018-02-09T11:52:31.948Z,67.87
2018-02-09T11:54:59.548Z,67.23
2018-02-09T11:57:27.092Z,68.61
2018-02-09T11:59:54.728Z,68.01
2018-02-09T12:02:22.532Z,68.26
2018-02-09T12:04:50.212Z,68.12
2018-02-09T12:07:17.741Z,67.48
2018-02-09T12:09:45.297Z,67.26
2018-02-09T12:12:12.854Z,67.16
2018-02-09T12:14:40.435Z,67.90
2018-02-09T12:17:07.961Z,69.36
2018-02-09T12:19:35.536Z,69.35
2018-02-09T12:22:03.092Z,68.40
2018-02-09T12:24:30.630Z,69.51
2018-02-09T12:26:58.901Z,69.07
2018-02-09T12:29:26.550Z,69.23
2018-02-09T12:31:54.130Z,68.63
2018-02-09T12:34:21.652Z,68.76
2018-02-09T12:36:49.267Z,69.16
2018-02-09T12:39:16.932Z,67.91
2018-02-09T12:41:44.536Z,68.47
2018-02-09T12:44:12.087Z,67.81
2018-02-09T12:46:39.622Z,67.66
2018-02-09T12:49:07.266Z,67.68
2018-02-09T12:51:34.790Z,67.65
2018-02-09T12:54:02.308Z,67.47
2018-02-09T12:56:29.862Z,67.42
2018-02-09T12:58:57.400Z,66.64
2018-02-09T13:01:25.345Z,67.72
2018-02-09T13:03:52.876Z,67.96
2018-02-09T13:06:21.452Z,68.53
2018-02-09T13:08:49.223Z,68.22
2018-02-09T13:11:17.094Z,67.30
2018-02-09T13:13:44.620Z,67.03
2018-02-09T13:16:12.183Z,68.20
2018-02-09T13:18:48.596Z,67.29
2018-02-09T13:21:16.185Z,67.15
2018-02-09T13:23:55.746Z,67.44
2018-02-09T13:26:23.353Z,66.33
2018-02-09T13:28:59.879Z,66.19
2018-02-09T13:31:27.482Z,66.57
2018-02-09T13:33:55.067Z,65.98
2018-02-09T13:39:29.550Z,66.74
2018-02-09T13:41:57.152Z,66.25
2018-02-09T13:44:24.715Z,66.77
2018-02-09T13:46:52.260Z,67.91
2018-02-09T13:49:19.876Z,67.73
2018-02-09T13:51:47.435Z,67.65
2018-02-09T13:54:15.004Z,67.40
2018-02-09T13:56:42.628Z,67.26
2018-02-09T13:59:10.295Z,67.35
2018-02-09T14:01:37.837Z,67.68
2018-02-09T14:04:05.382Z,67.17
2018-02-09T14:06:32.988Z,65.94
2018-02-09T14:09:00.861Z,66.25
2018-02-09T14:11:28.416Z,66.64
2018-02-09T14:13:56.008Z,67.33
2018-02-09T14:16:23.915Z,66.92
2018-02-09T14:18:51.450Z,66.82
2018-02-09T14:21:19.006Z,66.24
2018-02-09T14:23:46.620Z,66.38
2018-02-09T14:26:14.157Z,66.76
2018-02-09T14:28:41.708Z,66.11
2018-02-09T14:31:09.245Z,66.34
2018-02-09T14:33:36.801Z,66.05
2018-02-09T14:36:04.392Z,67.19
2018-02-09T14:38:31.988Z,66.96
2018-02-09T14:40:59.593Z,67.55
2018-02-09T14:43:27.177Z,67.21
2018-02-09T14:45:54.753Z,67.54
2018-02-09T14:48:22.376Z,66.89
2018-02-09T14:50:49.929Z,68.26
2018-02-09T14:53:17.452Z,69.02
2018-02-09T14:55:45.387Z,68.54
2018-02-09T14:58:13.031Z,68.79
2018-02-09T15:00:40.575Z,69.33
2018-02-09T15:03:08.254Z,69.56
2018-02-09T15:05:35.797Z,69.74
2018-02-09T15:08:03.324Z,69.62
2018-02-09T15:10:30.900Z,69.84
2018-02-09T15:12:58.433Z,69.83
2018-02-09T15:15:26.012Z,69.17
2018-02-09T15:17:53.705Z,69.54
2018-02-09T15:20:21.268Z,69.11
2018-02-09T15:22:48.812Z,68.29
2018-02-09T15:25:16.392Z,67.91
2018-02-09T15:27:43.950Z,68.46
2018-02-09T15:30:11.500Z,68.58
2018-02-09T15:32:39.118Z,68.80
2018-02-09T15:35:07.096Z,68.94
2018-02-09T15:37:34.796Z,69.36
2018-02-09T15:40:02.522Z,70.66
2018-02-09T15:42:30.092Z,70.75
2018-02-09T15:44:57.665Z,70.59
2018-02-09T15:47:25.212Z,70.19
2018-02-09T15:49:52.739Z,69.56
2018-02-09T15:52:20.637Z,70.19
2018-02-09T15:54:48.185Z,70.14
2018-02-09T15:57:15.729Z,70.40
2018-02-09T15:59:43.295Z,71.05
2018-02-09T16:02:10.863Z,71.04
2018-02-09T16:04:38.416Z,71.14
2018-02-09T16:07:05.959Z,71.34
2018-02-09T16:09:33.501Z,70.96
2018-02-09T16:12:01.106Z,71.34
2018-02-09T16:14:28.652Z,71.61
2018-02-09T16:16:56.197Z,71.87
2018-02-09T16:19:23.757Z,71.50
2018-02-09T16:21:51.290Z,72.35
2018-02-09T16:24:18.837Z,70.61
2018-02-09T16:26:46.374Z,70.72
2018-02-09T16:29:14.165Z,69.43
2018-02-09T16:31:41.732Z,70.85
2018-02-09T16:34:10.985Z,70.72
2018-02-09T16:36:38.955Z,72.45
2018-02-09T16:39:06.513Z,73.15
2018-02-09T16:41:34.051Z,73.20
2018-02-09T16:44:01.656Z,73.77
2018-02-09T16:46:29.245Z,73.96
2018-02-09T16:48:56.795Z,74.09
2018-02-09T16:51:24.376Z,73.79
2018-02-09T16:53:51.937Z,74.38
2018-02-09T16:56:19.540Z,73.78
2018-02-09T16:58:47.181Z,73.14
2018-02-09T17:01:14.759Z,74.18
2018-02-09T17:03:43.014Z,74.62
2018-02-09T17:06:10.547Z,74.91
2018-02-09T17:08:38.088Z,75.17
2018-02-09T17:11:05.843Z,74.31
2018-02-09T17:13:33.342Z,75.27
2018-02-09T17:16:00.915Z,75.66
2018-02-09T17:18:28.525Z,75.22
2018-02-09T17:20:56.087Z,75.21
2018-02-09T17:23:23.675Z,75.98
2018-02-09T17:25:51.292Z,76.03
2018-02-09T17:28:19.088Z,76.31
2018-02-09T17:30:47.053Z,76.45
2018-02-09T17:33:15.300Z,76.77
2018-02-09T17:35:42.823Z,76.51
2018-02-09T17:38:10.341Z,76.66
2018-02-09T17:40:38.292Z,77.02
2018-02-09T17:43:06.227Z,77.26
2018-02-09T17:45:33.791Z,77.22
2018-02-09T17:48:01.780Z,76.69
2018-02-09T17:50:29.362Z,76.65
2018-02-09T17:52:57.056Z,77.10
2018-02-09T17:55:24.979Z,77.23
2018-02-09T17:57:52.624Z,77.87
2018-02-09T18:00:20.218Z,77.72
2018-02-09T18:02:47.828Z,77.78
2018-02-09T18:05:15.360Z,77.66
2018-02-09T18:07:42.970Z,77.98
2018-02-09T18:10:10.589Z,78.60
2018-02-09T18:12:38.502Z,78.37
2018-02-09T18:15:06.132Z,78.78
2018-02-09T18:17:33.662Z,78.95
2018-02-09T18:20:01.227Z,78.85
2018-02-09T18:22:28.770Z,79.11
2018-02-09T18:24:56.357Z,79.36
2018-02-09T18:27:23.899Z,79.45
2018-02-09T18:29:51.828Z,79.62
2018-02-09T18:32:19.369Z,79.75
2018-02-09T18:34:46.909Z,79.65
2018-02-09T18:37:14.476Z,79.71
2018-02-09T18:39:42.164Z,80.32
2018-02-09T18:42:09.726Z,80.61
2018-02-09T18:44:37.300Z,80.97
2018-02-09T18:47:04.874Z,81.14
2018-02-09T18:49:32.412Z,81.41
2018-02-09T18:51:59.990Z,81.52
2018-02-09T18:54:27.616Z,81.39
2018-02-09T18:56:55.168Z,80.92
2018-02-09T18:59:22.705Z,80.83
2018-02-09T19:01:50.308Z,81.28
2018-02-09T19:04:17.891Z,81.14
2018-02-09T19:06:45.587Z,81.30
2018-02-09T19:09:13.108Z,81.68
2018-02-09T19:11:40.702Z,81.39
2018-02-09T19:14:08.295Z,82.15
2018-02-09T19:16:35.976Z,82.46
2018-02-09T19:19:03.882Z,83.04
2018-02-09T19:21:31.398Z,83.66
2018-02-09T19:23:58.951Z,83.59
2018-02-09T19:26:26.503Z,83.93
2018-02-09T19:28:54.025Z,84.29
2018-02-09T19:31:21.611Z,84.44
2018-02-09T19:33:49.145Z,84.91
2018-02-09T19:36:16.699Z,84.69
2018-02-09T19:38:44.288Z,84.62
2018-02-09T19:41:11.827Z,84.72
2018-02-09T19:43:39.753Z,84.63
2018-02-09T19:46:07.277Z,84.71
2018-02-09T19:48:34.854Z,84.37
2018-02-09T19:51:02.459Z,84.32
2018-02-09T19:53:30.066Z,84.45
2018-02-09T19:55:57.622Z,85.14
2018-02-09T19:58:25.451Z,85.79
2018-02-09T20:00:53.117Z,85.86
2018-02-09T20:03:20.937Z,85.94
2018-02-09T20:05:48.773Z,85.78
2018-02-09T20:08:16.551Z,86.23
2018-02-09T20:10:44.229Z,86.39
2018-02-09T20:13:11.829Z,86.50
2018-02-09T20:15:39.581Z,87.14
2018-02-09T20:18:07.163Z,87.88
2018-02-09T20:20:34.789Z,87.77
2018-02-09T20:25:29.460Z,87.96
2018-02-09T20:27:57.091Z,87.89
2018-02-09T20:30:24.912Z,88.07
2018-02-09T20:32:52.523Z,88.42
2018-02-09T20:35:20.164Z,88.59
2018-02-09T20:37:47.736Z,88.64
2018-02-09T20:40:15.288Z,88.43
2018-02-09T20:42:42.905Z,88.52
2018-02-09T20:45:10.427Z,89.08
2018-02-09T20:47:37.955Z,89.11
2018-02-09T20:50:05.536Z,89.79
2018-02-09T20:52:33.105Z,90.02
2018-02-09T20:55:00.656Z,89.70
2018-02-09T20:57:28.334Z,89.34
2018-02-09T20:59:55.995Z,88.40
2018-02-09T21:02:24.027Z,88.07
2018-02-09T21:04:51.643Z,87.57
2018-02-09T21:07:19.230Z,87.79
2018-02-09T21:09:46.848Z,87.85
2018-02-09T21:12:14.387Z,87.74
2018-02-09T21:14:42.399Z,87.97
2018-02-09T21:17:09.947Z,88.10
2018-02-09T21:19:37.530Z,88.45
2018-02-09T21:22:05.088Z,88.61
2018-02-09T21:24:32.655Z,88.83
2018-02-09T21:27:00.577Z,89.42
2018-02-09T21:29:28.096Z,89.76
2018-02-09T21:31:55.660Z,90.48
2018-02-09T21:34:23.203Z,90.37
2018-02-09T21:36:50.812Z,90.68
2018-02-09T21:39:18.339Z,90.67
2018-02-09T21:41:46.175Z,91.08
2018-02-09T21:44:13.744Z,91.40
2018-02-09T21:46:41.527Z,91.36
2018-02-09T21:49:09.136Z,91.05
2018-02-09T21:51:36.781Z,91.05
2018-02-09T21:54:04.447Z,91.13
2018-02-09T21:56:31.979Z,91.17
2018-02-09T21:58:59.497Z,91.22
2018-02-09T22:01:27.085Z,91.57
2018-02-09T22:03:54.607Z,91.93
2018-02-09T22:06:22.251Z,91.85
2018-02-09T22:08:49.852Z,92.19
2018-02-09T22:11:17.418Z,92.45
2018-02-09T22:13:44.935Z,93.01
2018-02-09T22:16:12.503Z,93.13
2018-02-09T22:18:40.177Z,93.49
2018-02-09T22:21:07.719Z,93.54
2018-02-09T22:23:35.263Z,93.78
2018-02-09T22:26:02.818Z,93.76
2018-02-09T22:28:30.396Z,94.13
2018-02-09T22:30:57.940Z,93.90
2018-02-09T22:33:25.524Z,93.82
2018-02-09T22:35:53.072Z,94.38
2018-02-09T22:38:20.652Z,94.48
2018-02-09T22:40:48.205Z,94.15
2018-02-09T22:43:15.828Z,94.42
2018-02-09T22:45:43.372Z,94.41
2018-02-09T22:48:10.900Z,95.06
2018-02-09T22:50:38.475Z,94.94
2018-02-09T22:53:06.032Z,95.38
2018-02-09T22:55:33.634Z,95.39
2018-02-09T22:58:01.178Z,94.24
2018-02-09T23:00:28.744Z,94.46
2018-02-09T23:02:56.362Z,94.96
2018-02-09T23:05:23.878Z,95.34
2018-02-09T23:07:51.452Z,95.80
2018-02-09T23:10:19.002Z,95.34
2018-02-09T23:12:46.907Z,95.97
2018-02-09T23:15:14.459Z,93.21
2018-02-09T23:17:42.016Z,93.31
2018-02-09T23:20:09.702Z,94.11
2018-02-09T23:22:37.231Z,94.04
2018-02-09T23:25:04.778Z,93.41
2018-02-09T23:27:32.335Z,93.62
2018-02-09T23:29:59.880Z,93.92
2018-02-09T23:32:27.475Z,94.37
2018-02-09T23:34:55.023Z,94.97
2018-02-09T23:37:22.603Z,94.23
2018-02-09T23:39:50.155Z,95.17
2018-02-09T23:42:17.768Z,96.18
2018-02-09T23:44:45.278Z,96.00
2018-02-09T23:47:12.808Z,95.75
2018-02-09T23:49:40.481Z,96.19
2018-02-09T23:52:08.088Z,96.92
2018-02-09T23:54:35.640Z,96.33
2018-02-09T23:57:03.191Z,96.63
2018-02-09T23:59:30.819Z,96.78
